createdAt,value
2022-08-08T00:03:41.909Z,31.89
2022-08-08T00:08:49.165Z,31.79
2022-08-08T00:14:14.699Z,31.86
2022-08-08T00:19:23.073Z,32.08
2022-08-08T00:24:30.439Z,32.10
2022-08-08T00:29:44.883Z,32.27
2022-08-08T00:35:18.789Z,32.22
2022-08-08T00:41:08.980Z,32.08
2022-08-08T00:46:32.269Z,32.15
2022-08-08T00:52:00.488Z,32.30
2022-08-08T00:57:58.114Z,32.36
2022-08-08T01:04:02.805Z,32.26
2022-08-08T01:09:36.069Z,32.31
2022-08-08T01:15:10.084Z,32.25
2022-08-08T01:20:39.330Z,32.39
2022-08-08T01:26:30.236Z,32.37
2022-08-08T01:32:13.623Z,32.85
2022-08-08T01:37:57.828Z,32.92
2022-08-08T01:43:09.510Z,33.04
2022-08-08T01:48:30.419Z,32.91
2022-08-08T01:55:15.878Z,33.04
2022-08-08T01:59:13.660Z,33.03
2022-08-08T02:04:21.424Z,33.29
2022-08-08T02:10:02.055Z,33.03
2022-08-08T02:15:04.171Z,33.25
2022-08-08T02:20:16.265Z,33.37
2022-08-08T02:25:48.511Z,33.42
2022-08-08T02:31:01.997Z,33.46
2022-08-08T02:36:20.873Z,33.60
2022-08-08T02:42:05.379Z,33.74
2022-08-08T02:47:35.608Z,33.97
2022-08-08T02:53:12.595Z,33.68
2022-08-08T02:58:52.235Z,33.64
2022-08-08T03:05:05.047Z,33.80
2022-08-08T03:10:44.068Z,33.80
2022-08-08T03:16:35.525Z,33.91
2022-08-08T03:21:54.576Z,34.00
2022-08-08T03:27:09.318Z,33.04
2022-08-08T03:32:30.640Z,33.22
2022-08-08T03:38:55.127Z,33.57
2022-08-08T03:43:15.616Z,35.12
2022-08-08T03:49:10.097Z,34.01
2022-08-08T03:53:47.778Z,33.83
2022-08-08T03:58:53.846Z,34.04
2022-08-08T04:04:01.819Z,33.95
2022-08-08T04:09:19.088Z,34.12
2022-08-08T04:14:33.235Z,34.31
2022-08-08T04:19:38.017Z,34.09
2022-08-08T04:24:41.988Z,34.43
2022-08-08T04:30:01.155Z,34.48
2022-08-08T04:35:13.192Z,34.16
2022-08-08T04:40:18.100Z,34.33
2022-08-08T04:45:27.885Z,35.29
2022-08-08T04:50:38.171Z,35.19
2022-08-08T04:55:55.097Z,35.03
2022-08-08T05:01:00.183Z,34.76
2022-08-08T05:06:13.422Z,34.30
2022-08-08T05:11:23.102Z,34.60
2022-08-08T05:16:53.572Z,34.71
2022-08-08T05:21:57.973Z,34.64
2022-08-08T05:27:03.839Z,34.73
2022-08-08T05:32:08.927Z,34.48
2022-08-08T05:37:19.304Z,35.48
2022-08-08T05:42:29.011Z,35.63
2022-08-08T05:47:52.484Z,35.66
2022-08-08T05:52:56.351Z,36.52
2022-08-08T05:58:04.898Z,36.66
2022-08-08T06:03:24.932Z,36.15
2022-08-08T06:08:34.490Z,36.36
2022-08-08T06:13:47.641Z,36.31
2022-08-08T06:18:55.165Z,36.50
2022-08-08T06:24:04.986Z,36.39
2022-08-08T06:29:26.490Z,35.84
2022-08-08T06:34:40.548Z,36.55
2022-08-08T06:39:56.180Z,36.90
2022-08-08T06:44:59.819Z,36.12
2022-08-08T06:50:04.690Z,36.47
2022-08-08T06:55:08.975Z,35.65
2022-08-08T07:00:13.213Z,35.81
2022-08-08T07:05:20.595Z,35.98
2022-08-08T07:10:27.840Z,35.78
2022-08-08T07:16:05.319Z,35.45
2022-08-08T07:21:04.965Z,36.57
2022-08-08T07:26:09.272Z,35.89
2022-08-08T07:31:12.207Z,34.98
2022-08-08T07:36:16.495Z,34.48
2022-08-08T07:41:24.890Z,34.31
2022-08-08T07:46:32.862Z,34.76
2022-08-08T07:51:53.587Z,35.19
2022-08-08T07:57:09.015Z,35.27
2022-08-08T08:02:37.363Z,35.32
2022-08-08T08:07:39.469Z,35.06
2022-08-08T08:12:50.337Z,35.15
2022-08-08T08:17:56.550Z,35.03
2022-08-08T08:23:02.448Z,35.18
2022-08-08T08:28:09.395Z,33.94
2022-08-08T08:33:13.251Z,33.56
2022-08-08T08:38:19.693Z,33.72
2022-08-08T08:43:31.668Z,33.50
2022-08-08T08:48:36.877Z,33.29
2022-08-08T08:53:55.923Z,33.40
2022-08-08T08:59:06.729Z,33.06
2022-08-08T09:04:30.176Z,32.39
2022-08-08T09:09:47.481Z,32.90
2022-08-08T09:14:57.874Z,31.28
2022-08-08T09:21:58.548Z,32.09
2022-08-08T09:25:35.616Z,31.94
2022-08-08T09:30:40.136Z,32.19
2022-08-08T09:35:49.921Z,31.75
2022-08-08T09:40:57.668Z,30.91
2022-08-08T09:46:03.129Z,29.81
2022-08-08T09:51:06.344Z,30.86
2022-08-08T09:56:21.666Z,31.76
2022-08-08T10:01:59.339Z,31.83
2022-08-08T10:06:53.925Z,31.52
2022-08-08T10:12:27.931Z,31.25
2022-08-08T10:17:56.558Z,31.47
2022-08-08T10:22:54.986Z,31.17
2022-08-08T10:27:59.460Z,30.51
2022-08-08T10:33:02.424Z,30.48
2022-08-08T10:38:08.048Z,30.16
2022-08-08T10:43:12.564Z,29.30
2022-08-08T10:48:17.165Z,28.79
2022-08-08T10:53:56.186Z,30.53
2022-08-08T10:59:00.032Z,31.46
2022-08-08T11:04:04.685Z,32.20
2022-08-08T11:09:15.004Z,32.22
2022-08-08T11:14:26.252Z,32.24
2022-08-08T11:19:29.332Z,32.60
2022-08-08T11:24:35.738Z,32.48
2022-08-08T11:29:51.050Z,32.45
2022-08-08T11:35:23.469Z,32.72
2022-08-08T11:40:29.122Z,32.65
2022-08-08T11:45:59.926Z,32.69
2022-08-08T11:50:58.722Z,32.91
2022-08-08T11:56:02.169Z,33.13
2022-08-08T12:01:12.351Z,33.34
2022-08-08T12:06:22.174Z,33.52
2022-08-08T12:11:29.268Z,33.38
2022-08-08T12:16:43.409Z,33.50
2022-08-08T12:21:59.646Z,33.49
2022-08-08T12:27:08.142Z,33.54
2022-08-08T12:32:19.547Z,33.88
2022-08-08T12:37:40.691Z,33.58
2022-08-08T12:42:46.505Z,33.76
2022-08-08T12:48:10.398Z,33.82
2022-08-08T12:53:30.167Z,34.15
2022-08-08T12:58:44.869Z,33.88
2022-08-08T13:03:51.938Z,34.19
2022-08-08T13:08:56.732Z,34.65
2022-08-08T13:14:04.336Z,34.64
2022-08-08T13:19:11.757Z,34.78
2022-08-08T13:24:18.551Z,34.95
2022-08-08T13:29:49.463Z,35.25
2022-08-08T13:34:55.384Z,35.12
2022-08-08T13:39:58.629Z,35.25
2022-08-08T13:45:04.482Z,35.27
2022-08-08T13:50:35.037Z,35.24
2022-08-08T13:55:36.581Z,35.37
2022-08-08T14:00:45.364Z,35.42
2022-08-08T14:06:00.698Z,35.54
2022-08-08T14:11:04.498Z,35.50
2022-08-08T14:16:16.758Z,35.53
2022-08-08T14:21:22.311Z,35.43
2022-08-08T14:26:28.419Z,35.54
2022-08-08T14:32:06.300Z,35.76
2022-08-08T14:36:55.920Z,35.68
2022-08-08T14:42:03.373Z,35.64
2022-08-08T14:47:20.793Z,35.63
2022-08-08T14:52:26.150Z,35.67
2022-08-08T14:58:02.287Z,35.96
2022-08-08T15:02:58.647Z,35.74
2022-08-08T15:08:22.177Z,35.88
2022-08-08T15:13:40.912Z,35.82
2022-08-08T15:18:59.671Z,35.86
2022-08-08T15:24:03.930Z,36.15
2022-08-08T15:29:06.773Z,35.74
2022-08-08T15:34:28.901Z,35.65
2022-08-08T15:39:38.239Z,35.53
2022-08-08T15:44:42.511Z,35.87
2022-08-08T15:49:47.840Z,35.68
2022-08-08T15:54:52.907Z,35.77
2022-08-08T16:00:14.147Z,36.11
2022-08-08T16:05:18.898Z,36.38
2022-08-08T16:13:14.268Z,36.51
2022-08-08T16:15:59.543Z,36.84
2022-08-08T16:21:20.809Z,34.53
2022-08-08T16:26:33.818Z,34.32
2022-08-08T16:31:40.926Z,33.63
2022-08-08T16:36:45.462Z,33.18
2022-08-08T16:41:53.906Z,34.68
2022-08-08T16:47:17.287Z,35.85
2022-08-08T16:55:04.275Z,36.09
2022-08-08T16:58:15.683Z,36.49
2022-08-08T17:03:07.791Z,35.83
2022-08-08T17:08:10.559Z,35.89
2022-08-08T17:13:14.774Z,36.43
2022-08-08T17:18:19.300Z,36.75
2022-08-08T17:23:58.281Z,36.80
2022-08-08T17:28:46.763Z,36.36
2022-08-08T17:34:35.867Z,36.69
2022-08-08T17:39:45.453Z,36.77
2022-08-08T17:44:39.844Z,36.97
2022-08-08T17:49:47.087Z,36.93
2022-08-08T17:54:56.422Z,37.02
2022-08-08T18:00:01.682Z,36.68
2022-08-08T18:05:08.564Z,36.73
2022-08-08T18:10:17.506Z,36.46
2022-08-08T18:15:21.613Z,36.61
2022-08-08T18:20:36.803Z,36.62
2022-08-08T18:25:48.963Z,36.65
2022-08-08T18:30:53.773Z,36.62
2022-08-08T18:36:02.866Z,37.04
2022-08-08T18:41:06.614Z,36.77
2022-08-08T18:46:54.982Z,37.13
2022-08-08T18:51:48.482Z,35.67
2022-08-08T18:56:56.962Z,35.67
2022-08-08T19:02:25.541Z,35.47
2022-08-08T19:07:29.946Z,35.54
2022-08-08T19:12:36.312Z,35.54
2022-08-08T19:17:47.952Z,36.11
2022-08-08T19:23:07.631Z,36.17
2022-08-08T19:28:18.157Z,35.93
2022-08-08T19:33:25.204Z,35.27
2022-08-08T19:38:42.504Z,35.21
2022-08-08T19:44:02.263Z,34.72
2022-08-08T19:49:07.893Z,34.32
2022-08-08T19:54:13.852Z,34.80
2022-08-08T19:59:22.078Z,34.96
2022-08-08T20:04:26.757Z,34.58
2022-08-08T20:09:30.059Z,34.02
2022-08-08T20:14:35.937Z,33.10
2022-08-08T20:19:46.352Z,34.03
2022-08-08T20:24:50.453Z,34.19
2022-08-08T20:30:00.451Z,34.01
2022-08-08T20:35:06.169Z,33.76
2022-08-08T20:40:16.577Z,34.15
2022-08-08T20:45:23.375Z,33.87
2022-08-08T20:50:44.116Z,33.85
2022-08-08T20:55:51.189Z,33.59
2022-08-08T21:00:54.229Z,33.35
2022-08-08T21:05:58.756Z,33.37
2022-08-08T21:11:02.492Z,33.31
2022-08-08T21:16:20.821Z,33.18
2022-08-08T21:21:39.415Z,33.13
2022-08-08T21:26:44.669Z,33.36
2022-08-08T21:31:53.128Z,33.50
2022-08-08T21:37:11.215Z,33.28
2022-08-08T21:42:14.298Z,33.79
2022-08-08T21:48:05.522Z,33.69
2022-08-08T21:54:34.460Z,33.85
2022-08-08T21:58:07.615Z,33.86
2022-08-08T22:03:17.803Z,33.42
2022-08-08T22:08:24.080Z,33.51
2022-08-08T22:13:47.846Z,33.99
2022-08-08T22:18:53.001Z,33.84
2022-08-08T22:23:58.371Z,33.82
2022-08-08T22:29:14.593Z,33.65
2022-08-08T22:34:24.947Z,33.80
2022-08-08T22:39:46.025Z,33.81
2022-08-08T22:44:54.377Z,33.97
2022-08-08T22:50:00.878Z,34.20
2022-08-08T22:55:06.197Z,34.34
2022-08-08T23:00:11.705Z,34.22
2022-08-08T23:05:16.325Z,34.31
2022-08-08T23:10:21.366Z,34.74
2022-08-08T23:16:40.784Z,34.50
2022-08-08T23:20:54.628Z,34.66
2022-08-08T23:25:59.097Z,34.61
2022-08-08T23:31:02.823Z,34.73
2022-08-08T23:36:08.170Z,35.15
2022-08-08T23:41:23.035Z,34.90
2022-08-08T23:49:05.980Z,34.82
2022-08-08T23:52:06.629Z,34.88
2022-08-08T23:57:25.662Z,35.01
